Terminal Aerodrome Forecast
Issued by NWS Sioux Falls, SD

Home | Current Version | Previous Version | Graphics & Text | Print | Product List | Glossary On
Versions: 1 2 3 4 5 6 7 8 9 10 11 12 13 14 15 16 17 18 19 20 21
597
FTUS43 KFSD 241732
TAFFSD
TAF
KFSD 241732Z 2418/2518 02014G20KT P6SM OVC012
     FM242200 02017G25KT P6SM OVC020
     FM250200 03014KT P6SM OVC015
     FM250500 03011KT P6SM OVC008
     FM251500 05011KT P6SM BKN010=

USA.gov is the U.S. government's official web portal to all federal, state and local government web resources and services.